Time;durP1;ratioP1;P1;durP2;ratioP2;P2;SDS_P1;SDS_P2;PMS_P1;PMS_P2;Temp;Humidity;BMP_temperature;BMP_pressure;BME280_temperature;BME280_humidity;BME280_pressure;Samples;Min_cycle;Max_cycle;Signal;HPM_P1;HPM_P2
2022/03/21 00:00:49;;;;;;;16.63;9.18;;;;;;;;;;4976613;28;20484;-61
2022/03/21 00:03:20;;;;;;;12.75;8.55;;;;;;;;;;4976651;28;20054;-61
2022/03/21 00:05:48;;;;;;;14.13;9.43;;;;;;;;;;4976058;28;20058;-61
2022/03/21 00:08:17;;;;;;;12.73;8.70;;;;;;;;;;4976407;28;20523;-61
2022/03/21 00:10:45;;;;;;;15.55;10.13;;;;;;;;;;4976227;28;20145;-61
2022/03/21 00:13:15;;;;;;;14.18;9.98;;;;;;;;;;4976317;28;20057;-62
2022/03/21 00:15:43;;;;;;;15.43;10.63;;;;;;;;;;4976202;28;20138;-61
2022/03/21 00:18:12;;;;;;;14.48;8.73;;;;;;;;;;4976396;28;20057;-60
2022/03/21 00:20:42;;;;;;;15.55;8.80;;;;;;;;;;4976158;28;20235;-61
2022/03/21 00:23:09;;;;;;;14.18;9.13;;;;;;;;;;4976435;28;20133;-61
2022/03/21 00:25:36;;;;;;;15.15;9.38;;;;;;;;;;4976110;28;20141;-61
2022/03/21 00:28:04;;;;;;;12.80;8.85;;;;;;;;;;4976245;28;20051;-61
2022/03/21 00:30:31;;;;;;;13.82;9.07;;;;;;;;;;4975681;28;20074;-61
2022/03/21 00:32:59;;;;;;;11.52;8.73;;;;;;;;;;4976244;28;20053;-61
2022/03/21 00:35:26;;;;;;;16.08;10.10;;;;;;;;;;4975642;28;20055;-61
2022/03/21 00:37:55;;;;;;;13.82;9.07;;;;;;;;;;4975780;28;20090;-61
2022/03/21 00:40:24;;;;;;;12.20;8.77;;;;;;;;;;4975907;28;20061;-61
2022/03/21 00:42:52;;;;;;;12.77;8.45;;;;;;;;;;4975925;28;20059;-61
2022/03/21 00:45:21;;;;;;;12.85;8.35;;;;;;;;;;4963878;28;20055;-61
2022/03/21 00:47:50;;;;;;;15.05;9.85;;;;;;;;;;4956608;28;20529;-61
2022/03/21 00:50:19;;;;;;;11.68;8.30;;;;;;;;;;4956318;28;20059;-61
2022/03/21 00:52:48;;;;;;;12.55;8.95;;;;;;;;;;4956633;28;20050;-61
2022/03/21 00:55:18;;;;;;;14.88;9.02;;;;;;;;;;4956232;28;20078;-60
2022/03/21 00:57:46;;;;;;;15.00;9.45;;;;;;;;;;4956295;28;20115;-61
2022/03/21 01:00:16;;;;;;;12.93;8.50;;;;;;;;;;4956394;28;20070;-61
2022/03/21 01:02:44;;;;;;;13.43;8.73;;;;;;;;;;4956118;28;20051;-61
2022/03/21 01:05:12;;;;;;;15.60;9.38;;;;;;;;;;4956270;28;20065;-61
2022/03/21 01:07:40;;;;;;;14.52;8.95;;;;;;;;;;4956099;28;20074;-61
2022/03/21 01:10:10;;;;;;;13.93;9.35;;;;;;;;;;4955809;28;20057;-61
2022/03/21 01:12:39;;;;;;;14.30;8.95;;;;;;;;;;4956089;28;20055;-60
2022/03/21 01:15:08;;;;;;;13.25;8.13;;;;;;;;;;4955677;28;20106;-61
2022/03/21 01:17:35;;;;;;;13.60;8.68;;;;;;;;;;4955719;28;20106;-61
2022/03/21 01:20:04;;;;;;;14.00;8.38;;;;;;;;;;4956316;28;20043;-61
2022/03/21 01:22:31;;;;;;;13.32;8.80;;;;;;;;;;4956138;28;20485;-61
2022/03/21 01:24:58;;;;;;;13.68;8.68;;;;;;;;;;4955812;28;20061;-61
2022/03/21 01:27:25;;;;;;;15.35;8.65;;;;;;;;;;4955578;28;20062;-61
2022/03/21 01:29:56;;;;;;;12.75;8.68;;;;;;;;;;4955927;28;20055;-60
2022/03/21 01:32:23;;;;;;;15.02;9.50;;;;;;;;;;4955758;28;20171;-61
2022/03/21 01:34:50;;;;;;;13.38;8.57;;;;;;;;;;4955734;28;20083;-61
2022/03/21 01:37:17;;;;;;;12.63;7.90;;;;;;;;;;4955256;28;20109;-61
2022/03/21 01:39:45;;;;;;;14.07;8.80;;;;;;;;;;4955830;28;20508;-60
2022/03/21 01:42:12;;;;;;;14.48;9.25;;;;;;;;;;4955199;28;20055;-61
2022/03/21 01:44:39;;;;;;;13.63;9.32;;;;;;;;;;4955795;28;20058;-61
2022/03/21 01:47:08;;;;;;;13.18;8.60;;;;;;;;;;4955486;28;20053;-61
2022/03/21 01:49:38;;;;;;;15.50;9.27;;;;;;;;;;4955194;28;20053;-61
2022/03/21 01:52:06;;;;;;;15.30;9.48;;;;;;;;;;4955082;28;20519;-61
2022/03/21 01:57:17;;;;;;;15.40;9.85;;;;;;;;;;4954945;29;20054;-61
2022/03/21 01:59:47;;;;;;;12.93;9.20;;;;;;;;;;4954848;29;20058;-61
2022/03/21 02:02:18;;;;;;;14.45;9.50;;;;;;;;;;4954766;29;20051;-61
2022/03/21 02:04:45;;;;;;;13.45;8.95;;;;;;;;;;4955485;28;20476;-61
2022/03/21 02:07:13;;;;;;;15.75;9.80;;;;;;;;;;4954928;28;20082;-61
2022/03/21 02:09:42;;;;;;;14.18;9.73;;;;;;;;;;4955054;28;20142;-61
2022/03/21 02:12:10;;;;;;;13.52;9.20;;;;;;;;;;4954778;28;20390;-61
2022/03/21 02:14:39;;;;;;;13.15;9.07;;;;;;;;;;4953953;28;20085;-61
2022/03/21 02:17:06;;;;;;;15.45;9.52;;;;;;;;;;4954662;28;20070;-61
2022/03/21 02:19:37;;;;;;;12.93;9.48;;;;;;;;;;4955052;28;20047;-61
2022/03/21 02:22:26;;;;;;;14.93;9.50;;;;;;;;;;4954636;28;20063;-61
2022/03/21 02:25:01;;;;;;;13.93;8.68;;;;;;;;;;4954677;28;20178;-61
2022/03/21 02:27:32;;;;;;;15.10;8.95;;;;;;;;;;4954549;28;20061;-61
2022/03/21 02:29:59;;;;;;;;;;;;;;;;;;4955021;28;20478;-61
2022/03/21 02:32:28;;;;;;;15.80;9.43;;;;;;;;;;4954315;28;19926;-61
2022/03/21 02:34:57;;;;;;;15.48;9.15;;;;;;;;;;4954526;28;20110;-61
2022/03/21 02:37:25;;;;;;;15.10;8.82;;;;;;;;;;4954111;29;20055;-61
2022/03/21 02:39:53;;;;;;;15.30;9.52;;;;;;;;;;4954621;28;20066;-61
2022/03/21 02:42:20;;;;;;;15.55;9.32;;;;;;;;;;4954286;28;20058;-63
2022/03/21 02:44:49;;;;;;;15.00;9.25;;;;;;;;;;4961580;28;20051;-60
2022/03/21 02:47:16;;;;;;;14.63;8.50;;;;;;;;;;4973086;28;20051;-60
2022/03/21 02:49:43;;;;;;;13.38;9.23;;;;;;;;;;4973550;28;20085;-60
2022/03/21 02:52:13;;;;;;;15.63;9.35;;;;;;;;;;4973557;28;20142;-59
2022/03/21 02:54:40;;;;;;;16.58;10.00;;;;;;;;;;4973640;28;20081;-60
2022/03/21 02:57:07;;;;;;;14.80;9.20;;;;;;;;;;4973334;28;20057;-62
2022/03/21 02:59:34;;;;;;;14.82;9.45;;;;;;;;;;4973503;28;20141;-60
2022/03/21 03:02:03;;;;;;;13.80;9.38;;;;;;;;;;4973282;28;20051;-60
2022/03/21 03:04:30;;;;;;;11.80;9.10;;;;;;;;;;4973545;28;20432;-62
2022/03/21 03:06:57;;;;;;;13.13;9.27;;;;;;;;;;4973504;28;20073;-60
2022/03/21 03:09:24;;;;;;;14.02;9.50;;;;;;;;;;4973468;28;20047;-62
2022/03/21 03:11:51;;;;;;;14.60;9.32;;;;;;;;;;4973235;28;20057;-60
2022/03/21 03:14:18;;;;;;;16.02;9.60;;;;;;;;;;4973699;28;20150;-59
2022/03/21 03:16:46;;;;;;;15.00;9.75;;;;;;;;;;4973233;28;20173;-60
2022/03/21 03:19:14;;;;;;;14.88;10.50;;;;;;;;;;4973422;28;20058;-60
2022/03/21 03:21:45;;;;;;;14.52;9.30;;;;;;;;;;4973557;28;20082;-61
2022/03/21 03:24:13;;;;;;;13.70;9.77;;;;;;;;;;4973279;28;20061;-61
2022/03/21 03:26:40;;;;;;;16.48;9.52;;;;;;;;;;4976881;28;20142;-61
2022/03/21 03:29:07;;;;;;;14.68;9.82;;;;;;;;;;4977106;28;20057;-61
2022/03/21 03:31:35;;;;;;;12.95;8.90;;;;;;;;;;4977050;28;20066;-63
2022/03/21 03:34:02;;;;;;;13.45;9.40;;;;;;;;;;4977000;28;20110;-60
2022/03/21 03:36:31;;;;;;;15.80;10.13;;;;;;;;;;4976413;28;20055;-60
2022/03/21 03:38:58;;;;;;;15.88;9.77;;;;;;;;;;4976651;28;20158;-59
2022/03/21 03:41:27;;;;;;;16.55;9.90;;;;;;;;;;4976825;28;20047;-61
2022/03/21 03:43:54;;;;;;;16.98;9.80;;;;;;;;;;4976152;28;20101;-61
2022/03/21 03:46:21;;;;;;;18.35;10.20;;;;;;;;;;4957285;28;20055;-60
2022/03/21 03:48:48;;;;;;;14.10;9.55;;;;;;;;;;4957197;29;20047;-61
2022/03/21 03:51:15;;;;;;;16.25;10.60;;;;;;;;;;4957277;28;20063;-61
2022/03/21 03:53:43;;;;;;;16.95;10.73;;;;;;;;;;4957256;29;20058;-61
2022/03/21 03:56:11;;;;;;;17.83;10.20;;;;;;;;;;4956998;29;20059;-60
2022/03/21 03:58:39;;;;;;;15.70;9.13;;;;;;;;;;4956990;29;20081;-60
2022/03/21 04:01:06;;;;;;;15.40;10.02;;;;;;;;;;4957559;28;20055;-61
2022/03/21 04:03:46;;;;;;;17.40;10.50;;;;;;;;;;4957031;29;20051;-61
2022/03/21 04:06:13;;;;;;;16.33;11.18;;;;;;;;;;4957250;28;20063;-61
2022/03/21 04:08:41;;;;;;;15.68;10.32;;;;;;;;;;4957027;29;20058;-61
2022/03/21 04:11:09;;;;;;;15.90;10.10;;;;;;;;;;4957077;29;20051;-61
2022/03/21 04:13:37;;;;;;;15.43;10.25;;;;;;;;;;4956744;29;20489;-61
2022/03/21 04:16:04;;;;;;;16.05;9.43;;;;;;;;;;4956693;28;20492;-61
2022/03/21 04:18:31;;;;;;;15.45;10.10;;;;;;;;;;4993087;23;20055;-67
2022/03/21 04:20:58;;;;;;;15.75;10.07;;;;;;;;;;4995456;28;20053;-66
2022/03/21 04:23:25;;;;;;;18.25;10.90;;;;;;;;;;4995421;28;20058;-66
2022/03/21 04:25:52;;;;;;;15.85;10.43;;;;;;;;;;4995166;28;20133;-66
2022/03/21 04:28:21;;;;;;;15.50;9.90;;;;;;;;;;4995118;28;20077;-66
2022/03/21 04:30:48;;;;;;;15.70;9.85;;;;;;;;;;4995366;28;20523;-66
2022/03/21 04:33:15;;;;;;;15.88;9.75;;;;;;;;;;4995177;28;20138;-67
2022/03/21 04:35:43;;;;;;;14.38;9.57;;;;;;;;;;4995115;28;20061;-66
2022/03/21 04:38:14;;;;;;;13.77;9.50;;;;;;;;;;4994284;28;20056;-66
2022/03/21 04:40:42;;;;;;;15.85;9.77;;;;;;;;;;4995113;28;20426;-67
2022/03/21 04:43:09;;;;;;;16.05;10.27;;;;;;;;;;4994989;28;20058;-67
2022/03/21 04:45:38;;;;;;;16.80;10.07;;;;;;;;;;4995109;28;20050;-66
2022/03/21 04:48:06;;;;;;;16.75;10.27;;;;;;;;;;4995192;28;20054;-67
2022/03/21 04:50:33;;;;;;;15.45;9.73;;;;;;;;;;4994654;28;20053;-67
2022/03/21 04:53:00;;;;;;;14.40;10.20;;;;;;;;;;4995012;28;20050;-67
2022/03/21 04:55:28;;;;;;;16.48;9.65;;;;;;;;;;4994574;28;20049;-67
2022/03/21 04:57:55;;;;;;;16.90;10.00;;;;;;;;;;4994603;28;20125;-66
2022/03/21 05:00:22;;;;;;;16.00;10.10;;;;;;;;;;4994629;28;20085;-66
2022/03/21 05:02:50;;;;;;;18.77;10.52;;;;;;;;;;4994528;28;20054;-66
2022/03/21 05:05:17;;;;;;;16.88;9.90;;;;;;;;;;4994383;28;20047;-67
2022/03/21 05:07:45;;;;;;;15.45;10.18;;;;;;;;;;4994466;28;20050;-65
2022/03/21 05:10:14;;;;;;;15.10;9.35;;;;;;;;;;4994766;28;20109;-66
2022/03/21 05:12:41;;;;;;;16.45;9.60;;;;;;;;;;4994688;28;20050;-67
2022/03/21 05:15:09;;;;;;;15.77;10.00;;;;;;;;;;4994237;28;20411;-67
2022/03/21 05:17:37;;;;;;;17.35;10.38;;;;;;;;;;4994488;28;20057;-67
2022/03/21 05:20:11;;;;;;;15.52;9.55;;;;;;;;;;4994464;28;20054;-66
2022/03/21 05:22:38;;;;;;;16.90;10.20;;;;;;;;;;4994402;28;20046;-65
2022/03/21 05:36:08;;;;;;;16.45;10.38;;;;;;;;;;4993871;28;20089;-66
2022/03/21 05:38:35;;;;;;;15.10;10.15;;;;;;;;;;4994048;28;20061;-67
2022/03/21 05:41:03;;;;;;;16.90;9.82;;;;;;;;;;4994460;28;20046;-67
2022/03/21 05:43:32;;;;;;;15.00;9.82;;;;;;;;;;4994257;28;20054;-66
2022/03/21 05:46:00;;;;;;;14.27;9.82;;;;;;;;;;4993929;28;20051;-68
2022/03/21 05:51:14;;;;;;;13.70;9.65;;;;;;;;;;4994110;28;20124;-66
2022/03/21 05:53:42;;;;;;;15.07;9.48;;;;;;;;;;4994178;28;20415;-66
2022/03/21 05:56:09;;;;;;;16.98;9.40;;;;;;;;;;4993602;28;20047;-66
2022/03/21 05:58:36;;;;;;;17.52;10.25;;;;;;;;;;4993286;28;20054;-67
2022/03/21 06:01:04;;;;;;;16.38;9.98;;;;;;;;;;4993534;28;20190;-67
2022/03/21 06:03:31;;;;;;;15.00;10.75;;;;;;;;;;4993312;28;20061;-66
2022/03/21 06:05:59;;;;;;;17.80;11.25;;;;;;;;;;4993500;28;20042;-67
2022/03/21 06:08:28;;;;;;;19.40;11.50;;;;;;;;;;4993901;28;20054;-67
2022/03/21 06:11:03;;;;;;;17.55;11.15;;;;;;;;;;4993686;28;20077;-67
2022/03/21 06:13:34;;;;;;;27.05;12.18;;;;;;;;;;4993291;28;20137;-67
2022/03/21 06:16:03;;;;;;;34.70;12.10;;;;;;;;;;4993449;28;20050;-67
2022/03/21 06:18:30;;;;;;;31.55;13.40;;;;;;;;;;4993172;28;20061;-67
2022/03/21 06:20:58;;;;;;;39.15;14.60;;;;;;;;;;4993405;28;20488;-67
2022/03/21 06:23:25;;;;;;;28.63;14.18;;;;;;;;;;4993929;28;20042;-65
2022/03/21 06:25:54;;;;;;;24.98;12.18;;;;;;;;;;4993763;28;20129;-66
2022/03/21 06:28:22;;;;;;;21.80;11.68;;;;;;;;;;4993818;28;20075;-68
2022/03/21 06:30:51;;;;;;;19.55;11.60;;;;;;;;;;4992897;28;20057;-65
2022/03/21 06:33:18;;;;;;;21.48;12.38;;;;;;;;;;4993697;28;20061;-67
2022/03/21 06:35:46;;;;;;;18.60;10.52;;;;;;;;;;4993017;28;20046;-67
2022/03/21 06:38:13;;;;;;;19.40;11.10;;;;;;;;;;4993366;28;20046;-66
2022/03/21 06:40:40;;;;;;;21.55;12.45;;;;;;;;;;4993917;28;20053;-66
2022/03/21 06:43:09;;;;;;;21.58;11.20;;;;;;;;;;4993765;28;20097;-66
2022/03/21 06:45:37;;;;;;;22.98;12.18;;;;;;;;;;4993235;28;20108;-66
2022/03/21 06:48:05;;;;;;;21.80;12.80;;;;;;;;;;4993376;28;20047;-66
2022/03/21 06:50:32;;;;;;;21.23;14.70;;;;;;;;;;4992628;28;20133;-67
2022/03/21 06:52:59;;;;;;;19.92;12.55;;;;;;;;;;4993057;28;20053;-67
2022/03/21 06:55:26;;;;;;;21.05;12.77;;;;;;;;;;4992661;28;20050;-66
2022/03/21 06:57:55;;;;;;;19.60;10.95;;;;;;;;;;4992794;28;20078;-66
2022/03/21 07:00:25;;;;;;;17.98;12.32;;;;;;;;;;4996510;28;20076;-67
2022/03/21 07:02:52;;;;;;;25.60;14.85;;;;;;;;;;4999138;28;20050;-66
2022/03/21 07:05:19;;;;;;;28.45;16.05;;;;;;;;;;4999308;28;20081;-66
2022/03/21 07:07:47;;;;;;;20.33;11.98;;;;;;;;;;4999479;28;20043;-66
2022/03/21 07:10:14;;;;;;;19.00;11.38;;;;;;;;;;4999273;28;20146;-65
2022/03/21 07:12:41;;;;;;;19.50;12.20;;;;;;;;;;4999443;28;20537;-66
2022/03/21 07:15:09;;;;;;;18.55;11.93;;;;;;;;;;4999078;28;20049;-66
2022/03/21 07:17:37;;;;;;;19.67;12.02;;;;;;;;;;4998922;28;20054;-66
2022/03/21 07:20:05;;;;;;;19.45;12.05;;;;;;;;;;4999122;28;20046;-67
2022/03/21 07:22:33;;;;;;;17.45;11.98;;;;;;;;;;4999430;28;20089;-66
2022/03/21 07:25:00;;;;;;;22.08;13.60;;;;;;;;;;4998954;28;20104;-67
2022/03/21 07:27:27;;;;;;;25.75;15.90;;;;;;;;;;4999155;28;20086;-66
2022/03/21 07:29:54;;;;;;;21.52;12.63;;;;;;;;;;4999026;28;20054;-67
2022/03/21 07:32:21;;;;;;;20.52;13.10;;;;;;;;;;4999626;28;20499;-66
2022/03/21 07:34:49;;;;;;;21.75;12.60;;;;;;;;;;4999064;28;20042;-66
2022/03/21 07:37:16;;;;;;;20.23;12.77;;;;;;;;;;4999047;28;20057;-66
2022/03/21 07:39:46;;;;;;;20.75;13.63;;;;;;;;;;4998859;28;20046;-67
2022/03/21 07:42:16;;;;;;;29.15;14.32;;;;;;;;;;4999244;28;20085;-67
2022/03/21 07:47:28;;;;;;;21.95;13.55;;;;;;;;;;4999251;28;20081;-67
2022/03/21 07:49:56;;;;;;;22.35;13.48;;;;;;;;;;4999186;28;20129;-66
2022/03/21 07:52:24;;;;;;;22.65;13.98;;;;;;;;;;4999195;28;20044;-68
2022/03/21 07:54:53;;;;;;;27.02;14.82;;;;;;;;;;4998814;28;20084;-67
2022/03/21 07:57:21;;;;;;;21.05;13.77;;;;;;;;;;4999189;28;20412;-67
2022/03/21 07:59:48;;;;;;;19.45;13.40;;;;;;;;;;4999562;28;20058;-66
2022/03/21 08:02:19;;;;;;;25.13;13.95;;;;;;;;;;4999339;28;20097;-66
2022/03/21 08:04:47;;;;;;;20.00;14.23;;;;;;;;;;4999239;28;20054;-67
2022/03/21 08:07:16;;;;;;;21.80;13.88;;;;;;;;;;4999667;28;20065;-66
2022/03/21 08:09:43;;;;;;;22.73;14.88;;;;;;;;;;4999155;28;20053;-66
2022/03/21 08:12:11;;;;;;;22.67;14.98;;;;;;;;;;4996078;28;20501;-67
2022/03/21 08:14:38;;;;;;;24.08;14.95;;;;;;;;;;4996026;28;20050;-66
2022/03/21 08:17:06;;;;;;;23.08;14.25;;;;;;;;;;4995915;28;20051;-67
2022/03/21 08:19:33;;;;;;;22.25;13.77;;;;;;;;;;4996515;28;20081;-66
2022/03/21 08:22:00;;;;;;;24.48;14.05;;;;;;;;;;4996014;28;20046;-66
2022/03/21 08:24:33;;;;;;;22.48;13.77;;;;;;;;;;4996071;28;20129;-66
2022/03/21 08:27:00;;;;;;;23.20;13.75;;;;;;;;;;4996322;28;20097;-66
2022/03/21 08:29:27;;;;;;;25.52;13.55;;;;;;;;;;4995829;28;20046;-66
2022/03/21 08:31:54;;;;;;;20.92;12.98;;;;;;;;;;4995388;28;20050;-66
2022/03/21 08:34:22;;;;;;;21.38;12.70;;;;;;;;;;4996477;28;20069;-66
2022/03/21 08:36:50;;;;;;;23.35;13.63;;;;;;;;;;4995856;28;20046;-67
2022/03/21 08:39:17;;;;;;;19.02;13.43;;;;;;;;;;4995431;28;20050;-66
2022/03/21 08:41:45;;;;;;;20.15;13.63;;;;;;;;;;4996123;28;20058;-66
2022/03/21 08:44:12;;;;;;;22.90;14.35;;;;;;;;;;4995763;28;20054;-66
2022/03/21 08:46:39;;;;;;;19.63;13.27;;;;;;;;;;4995452;28;20133;-66
2022/03/21 08:51:49;;;;;;;17.58;12.10;;;;;;;;;;4985229;28;20412;-66
2022/03/21 08:54:16;;;;;;;23.95;15.05;;;;;;;;;;4995899;28;20042;-67
2022/03/21 08:56:47;;;;;;;16.20;11.63;;;;;;;;;;4995195;28;20060;-66
2022/03/21 08:59:14;;;;;;;19.55;12.02;;;;;;;;;;4995649;28;20458;-66
2022/03/21 09:01:41;;;;;;;20.85;13.05;;;;;;;;;;4995395;28;20411;-65
2022/03/21 09:04:09;;;;;;;17.23;10.90;;;;;;;;;;4995395;28;20516;-65
2022/03/21 09:06:36;;;;;;;17.98;12.02;;;;;;;;;;4994690;28;20057;-66
2022/03/21 09:09:04;;;;;;;18.13;11.20;;;;;;;;;;4994911;28;20428;-67
2022/03/21 09:11:31;;;;;;;18.58;11.10;;;;;;;;;;4994379;28;20078;-66
2022/03/21 09:14:00;;;;;;;18.13;10.88;;;;;;;;;;4994526;28;20133;-68
2022/03/21 09:16:27;;;;;;;17.17;11.95;;;;;;;;;;4994952;28;20058;-66
2022/03/21 09:18:54;;;;;;;21.65;12.65;;;;;;;;;;4994658;28;20046;-67
2022/03/21 09:21:21;;;;;;;15.32;11.10;;;;;;;;;;4994391;28;20092;-67
2022/03/21 09:23:48;;;;;;;16.88;11.80;;;;;;;;;;4994360;28;20106;-67
2022/03/21 09:26:16;;;;;;;16.70;11.13;;;;;;;;;;4994123;28;20063;-66
2022/03/21 09:28:43;;;;;;;16.75;11.77;;;;;;;;;;4994153;28;20137;-66
2022/03/21 09:31:13;;;;;;;21.00;11.88;;;;;;;;;;4994240;28;20050;-66
2022/03/21 09:33:41;;;;;;;17.80;11.27;;;;;;;;;;4994160;28;20054;-66
2022/03/21 09:36:08;;;;;;;16.77;10.80;;;;;;;;;;4994241;28;20516;-66
2022/03/21 09:38:37;;;;;;;20.25;13.73;;;;;;;;;;4994235;28;20411;-66
2022/03/21 09:41:04;;;;;;;16.13;11.80;;;;;;;;;;4993921;28;20189;-66
2022/03/21 09:43:31;;;;;;;17.80;11.00;;;;;;;;;;4994014;28;20415;-67
2022/03/21 09:45:59;;;;;;;16.40;11.82;;;;;;;;;;4994028;28;20050;-67
2022/03/21 09:48:28;;;;;;;18.33;11.10;;;;;;;;;;4993862;28;20056;-66
2022/03/21 09:50:56;;;;;;;16.27;11.02;;;;;;;;;;4994411;28;20053;-66
2022/03/21 09:53:25;;;;;;;17.25;11.02;;;;;;;;;;4993922;28;20046;-66
2022/03/21 09:55:53;;;;;;;16.63;10.73;;;;;;;;;;4994186;28;20105;-67
2022/03/21 09:58:20;;;;;;;15.32;11.10;;;;;;;;;;4993771;28;20056;-67
2022/03/21 10:00:49;;;;;;;19.20;11.30;;;;;;;;;;4993874;28;20495;-66
2022/03/21 10:03:16;;;;;;;16.17;10.10;;;;;;;;;;4993966;28;20047;-67
2022/03/21 10:05:46;;;;;;;16.38;11.00;;;;;;;;;;4993677;28;20559;-66
2022/03/21 10:08:22;;;;;;;19.33;11.75;;;;;;;;;;4993485;28;20141;-67
2022/03/21 10:10:54;;;;;;;18.35;11.88;;;;;;;;;;4993647;28;20439;-67
2022/03/21 10:13:22;;;;;;;18.33;11.93;;;;;;;;;;4993433;28;20056;-65
2022/03/21 10:15:50;;;;;;;15.52;11.32;;;;;;;;;;4993513;28;20046;-65
2022/03/21 10:18:18;;;;;;;15.80;10.65;;;;;;;;;;5013186;23;20050;-78
2022/03/21 10:20:46;;;;;;;17.55;12.00;;;;;;;;;;5008645;28;20052;-78
2022/03/21 10:23:19;;;;;;;17.80;12.18;;;;;;;;;;5012081;28;20046;-79
2022/03/21 10:25:46;;;;;;;17.05;11.85;;;;;;;;;;5005987;28;20062;-79
2022/03/21 10:28:33;;;;;;;17.88;12.30;;;;;;;;;;5006816;28;20073;-78
2022/03/21 10:31:00;;;;;;;19.02;11.52;;;;;;;;;;5009145;28;20047;-79
2022/03/21 10:33:28;;;;;;;17.58;11.57;;;;;;;;;;5008212;28;20054;-78
2022/03/21 10:35:57;;;;;;;15.93;11.45;;;;;;;;;;5003890;28;20046;-78
2022/03/21 10:38:34;;;;;;;20.63;11.85;;;;;;;;;;5004000;28;20092;-78
2022/03/21 10:41:07;;;;;;;18.42;11.50;;;;;;;;;;5000103;28;20055;-79
2022/03/21 10:43:34;;;;;;;18.85;11.50;;;;;;;;;;4996346;28;20078;-79
2022/03/21 10:46:02;;;;;;;22.98;14.05;;;;;;;;;;4978419;28;20062;-78
2022/03/21 10:48:30;;;;;;;25.20;15.05;;;;;;;;;;4976505;28;20110;-77
2022/03/21 10:51:01;;;;;;;19.60;11.98;;;;;;;;;;4990079;28;20110;-76
2022/03/21 10:53:32;;;;;;;;;;;;;;;;;;4996725;28;20051;-76
2022/03/21 10:56:05;;;;;;;17.75;11.15;;;;;;;;;;4988048;28;19928;-75
2022/03/21 10:58:36;;;;;;;16.75;11.27;;;;;;;;;;4985175;28;20051;-78
2022/03/21 11:01:14;;;;;;;18.45;12.27;;;;;;;;;;4985574;28;20047;-78
2022/03/21 11:03:42;;;;;;;16.55;11.32;;;;;;;;;;4984527;28;20057;-78
2022/03/21 11:06:10;;;;;;;21.98;12.40;;;;;;;;;;4987022;28;20410;-78
2022/03/21 11:08:38;;;;;;;17.92;10.88;;;;;;;;;;4984725;28;20047;-78
2022/03/21 11:11:05;;;;;;;15.40;10.32;;;;;;;;;;4984951;28;20046;-80
2022/03/21 11:13:33;;;;;;;18.58;11.35;;;;;;;;;;4980174;28;20410;-78
2022/03/21 11:16:00;;;;;;;18.35;11.20;;;;;;;;;;4977689;28;20573;-78
2022/03/21 11:18:28;;;;;;;17.48;11.85;;;;;;;;;;4976540;28;20073;-78
2022/03/21 11:20:55;;;;;;;17.52;11.80;;;;;;;;;;4977843;28;20062;-78
2022/03/21 11:23:25;;;;;;;18.15;12.02;;;;;;;;;;4976949;28;20062;-79
2022/03/21 11:25:55;;;;;;;17.42;12.52;;;;;;;;;;4977087;28;20109;-79
2022/03/21 11:28:54;;;;;;;18.60;11.93;;;;;;;;;;4977837;28;20054;-79
2022/03/21 11:31:38;;;;;;;19.88;13.07;;;;;;;;;;4977114;28;20051;-78
2022/03/21 11:34:18;;;;;;;16.80;11.60;;;;;;;;;;4978800;28;20062;-78
2022/03/21 11:36:53;;;;;;;17.50;11.30;;;;;;;;;;4978934;28;20050;-80
2022/03/21 11:39:22;;;;;;;17.08;11.45;;;;;;;;;;4978369;28;20055;-79
2022/03/21 11:42:00;;;;;;;22.88;15.23;;;;;;;;;;4977068;28;20055;-78
2022/03/21 11:44:27;;;;;;;19.58;12.30;;;;;;;;;;4980160;28;20043;-78
2022/03/21 11:46:54;;;;;;;15.57;11.32;;;;;;;;;;4981694;28;20047;-78
2022/03/21 11:49:44;;;;;;;19.35;12.07;;;;;;;;;;4979880;28;20054;-77
2022/03/21 11:52:11;;;;;;;18.13;11.57;;;;;;;;;;4979485;28;20054;-77
2022/03/21 11:54:40;;;;;;;19.50;11.07;;;;;;;;;;4978922;28;20055;-78
2022/03/21 11:57:07;;;;;;;16.15;10.82;;;;;;;;;;4978754;28;20088;-77
2022/03/21 11:59:57;;;;;;;15.45;11.75;;;;;;;;;;4978464;28;20062;-78
2022/03/21 12:02:57;;;;;;;15.82;11.07;;;;;;;;;;4979463;28;20051;-78
2022/03/21 12:05:47;;;;;;;15.20;11.07;;;;;;;;;;4977296;28;20055;-77
2022/03/21 12:08:52;;;;;;;16.75;10.05;;;;;;;;;;4977556;28;20050;-77
2022/03/21 12:11:56;;;;;;;17.17;10.63;;;;;;;;;;4988284;28;20047;-77
2022/03/21 12:14:36;;;;;;;18.33;11.75;;;;;;;;;;4959541;28;20047;-79
2022/03/21 12:17:32;;;;;;;16.38;11.80;;;;;;;;;;4980268;28;20059;-79
2022/03/21 12:20:05;;;;;;;17.48;11.70;;;;;;;;;;4980483;28;20054;-78
2022/03/21 12:22:37;;;;;;;16.73;11.07;;;;;;;;;;4980780;28;20061;-79
2022/03/21 12:25:07;;;;;;;17.67;14.02;;;;;;;;;;4981947;28;20055;-78
2022/03/21 12:27:36;;;;;;;14.95;11.27;;;;;;;;;;4982094;28;20129;-77
2022/03/21 12:30:39;;;;;;;15.98;11.30;;;;;;;;;;4980816;28;20051;-78
2022/03/21 12:33:31;;;;;;;19.17;14.02;;;;;;;;;;4980187;28;20089;-78
2022/03/21 12:36:08;;;;;;;16.10;11.85;;;;;;;;;;4978966;28;20066;-77
2022/03/21 12:38:40;;;;;;;15.77;11.68;;;;;;;;;;4978268;28;20043;-78
2022/03/21 12:41:09;;;;;;;16.38;11.50;;;;;;;;;;4979300;28;20089;-78
2022/03/21 12:43:55;;;;;;;17.27;12.95;;;;;;;;;;4978023;28;20050;-78
2022/03/21 12:46:24;;;;;;;15.45;11.60;;;;;;;;;;4966400;29;20055;-77
2022/03/21 12:49:00;;;;;;;14.75;11.50;;;;;;;;;;4973126;29;20086;-77
2022/03/21 12:51:30;;;;;;;18.35;12.25;;;;;;;;;;4974461;28;20066;-77
2022/03/21 12:53:59;;;;;;;18.65;12.82;;;;;;;;;;4973677;29;20047;-78
2022/03/21 12:56:30;;;;;;;18.45;12.20;;;;;;;;;;4973004;29;20043;-77
2022/03/21 12:59:00;;;;;;;19.15;13.48;;;;;;;;;;4964163;28;20454;-77
2022/03/21 13:01:28;;;;;;;17.55;12.98;;;;;;;;;;4962414;29;20051;-77
2022/03/21 13:10:32;;;;;;;20.65;13.57;;;;;;;;;;4963096;28;20058;-78
2022/03/21 13:12:35;;;;;;;16.25;13.77;;;;;;;;;;4961668;29;20059;-78
2022/03/21 13:15:05;;;;;;;16.27;11.95;;;;;;;;;;4960685;29;20111;-78
2022/03/21 13:17:51;;;;;;;16.90;12.07;;;;;;;;;;4961605;29;20053;-77
2022/03/21 13:20:26;;;;;;;16.55;11.68;;;;;;;;;;4962070;28;20051;-78
2022/03/21 13:22:54;;;;;;;16.35;12.77;;;;;;;;;;4960239;29;20083;-79
2022/03/21 13:25:26;;;;;;;16.85;12.20;;;;;;;;;;4959185;29;20047;-78
2022/03/21 13:28:05;;;;;;;14.25;10.75;;;;;;;;;;4959751;29;20062;-78
2022/03/21 13:30:32;;;;;;;16.10;11.50;;;;;;;;;;4961014;29;20083;-78
2022/03/21 13:33:01;;;;;;;13.75;10.70;;;;;;;;;;4966933;29;20125;-78
2022/03/21 13:35:28;;;;;;;15.57;11.20;;;;;;;;;;4967446;29;20055;-78
2022/03/21 13:38:02;;;;;;;15.45;10.50;;;;;;;;;;4957693;29;20145;-79
2022/03/21 13:40:29;;;;;;;15.05;10.77;;;;;;;;;;4958140;28;20076;-79
2022/03/21 13:43:15;;;;;;;13.23;10.55;;;;;;;;;;4959105;29;20055;-78
2022/03/21 13:45:42;;;;;;;14.48;10.05;;;;;;;;;;4973250;28;20050;-79
2022/03/21 13:48:10;;;;;;;12.52;9.73;;;;;;;;;;4977764;28;20054;-79
2022/03/21 13:50:39;;;;;;;15.60;10.45;;;;;;;;;;4977535;28;20055;-79
2022/03/21 13:53:25;;;;;;;12.05;9.95;;;;;;;;;;4979566;28;20075;-78
2022/03/21 13:55:52;;;;;;;13.82;10.00;;;;;;;;;;4995194;28;20046;-78
2022/03/21 13:58:25;;;;;;;14.93;10.50;;;;;;;;;;4993178;28;20055;-79
2022/03/21 14:00:52;;;;;;;14.13;10.18;;;;;;;;;;4982351;28;20051;-77
2022/03/21 14:03:34;;;;;;;12.65;10.30;;;;;;;;;;4981991;28;20106;-78
2022/03/21 14:06:02;;;;;;;12.57;10.15;;;;;;;;;;4978056;28;20061;-78
2022/03/21 14:08:29;;;;;;;14.50;11.23;;;;;;;;;;4977881;28;20118;-78
2022/03/21 14:11:05;;;;;;;15.68;11.82;;;;;;;;;;4977045;28;20081;-79
2022/03/21 14:13:35;;;;;;;14.30;11.18;;;;;;;;;;4978524;28;20098;-80
2022/03/21 14:16:03;;;;;;;13.77;10.60;;;;;;;;;;4979384;28;20105;-78
2022/03/21 14:18:33;;;;;;;14.77;10.63;;;;;;;;;;4978490;28;20061;-77
2022/03/21 14:21:01;;;;;;;14.90;10.82;;;;;;;;;;4976578;28;20494;-78
2022/03/21 14:23:28;;;;;;;13.98;11.25;;;;;;;;;;4974968;28;20053;-77
2022/03/21 14:28:39;;;;;;;15.68;11.02;;;;;;;;;;4974678;28;20620;-76
2022/03/21 14:31:06;;;;;;;14.10;11.20;;;;;;;;;;4974432;28;20058;-77
2022/03/21 14:33:35;;;;;;;17.23;11.63;;;;;;;;;;4974881;28;20058;-77
2022/03/21 14:36:03;;;;;;;16.08;11.85;;;;;;;;;;4974340;28;20061;-77
2022/03/21 14:38:30;;;;;;;14.50;11.10;;;;;;;;;;4974034;28;20047;-77
2022/03/21 14:40:57;;;;;;;15.73;12.55;;;;;;;;;;4974241;28;20092;-78
2022/03/21 14:43:26;;;;;;;16.05;11.98;;;;;;;;;;4974688;28;20043;-79
2022/03/21 14:45:53;;;;;;;15.05;12.63;;;;;;;;;;4974295;28;20489;-77
2022/03/21 14:48:21;;;;;;;15.10;11.35;;;;;;;;;;4975405;28;20146;-77
2022/03/21 14:50:49;;;;;;;16.52;12.18;;;;;;;;;;4974871;28;20561;-76
2022/03/21 14:53:16;;;;;;;16.02;12.15;;;;;;;;;;4975871;28;20054;-78
2022/03/21 14:55:43;;;;;;;15.25;11.85;;;;;;;;;;4974477;28;20150;-77
2022/03/21 14:58:10;;;;;;;13.82;12.10;;;;;;;;;;4973984;28;20546;-78
2022/03/21 15:00:40;;;;;;;15.77;12.25;;;;;;;;;;4974441;28;20125;-77
2022/03/21 15:03:08;;;;;;;15.55;12.40;;;;;;;;;;4974360;28;20109;-77
2022/03/21 15:05:36;;;;;;;15.98;11.68;;;;;;;;;;4974171;28;20053;-78